N1496D KBLK-KFFO
Flight info
| Callsign | N1496D |
|---|---|
| Flight time | N/A |
| Altitude | VFR/065 |
| Route | |
| Aircraft | PA24/L-DOV/C |
Departure
| Time | N/A |
|---|---|
| Airport | KBLK |
Arrival
| Time | 2026-05-09 03:35 |
|---|---|
| Airport | Wright-Patterson Air Force Base (KFFO) |
| Time | Latitude | Longitude | Altitude | Speed | Heading |
|---|---|---|---|---|---|
| 2026-05-09 01:58 | 41.51603 | -81.68312 | 590 ft | 20 kts | 56° |
| 2026-05-09 01:58 | 41.51683 | -81.68145 | 589 ft | 23 kts | 59° |
| 2026-05-09 01:59 | 41.51752 | -81.67996 | 589 ft | 16 kts | 57° |
| 2026-05-09 01:59 | 41.51810 | -81.67870 | 586 ft | 17 kts | 59° |
| 2026-05-09 01:59 | 41.51878 | -81.67729 | 585 ft | 21 kts | 57° |
| 2026-05-09 01:59 | 41.51964 | -81.67547 | 584 ft | 25 kts | 58° |
| 2026-05-09 02:00 | 41.52054 | -81.67354 | 587 ft | 25 kts | 57° |
| 2026-05-09 02:00 | 41.52148 | -81.67157 | 588 ft | 24 kts | 57° |
| 2026-05-09 02:00 | 41.52241 | -81.67069 | 589 ft | 15 kts | 335° |
| 2026-05-09 02:00 | 41.52305 | -81.67120 | 589 ft | 0 kts | 329° |
| 2026-05-09 02:01 | 41.52348 | -81.67159 | 589 ft | 14 kts | 325° |
| 2026-05-09 02:01 | 41.52352 | -81.67221 | 590 ft | 0 kts | 238° |
| 2026-05-09 02:02 | 41.52346 | -81.67232 | 591 ft | 17 kts | 238° |
| 2026-05-09 02:02 | 41.52133 | -81.67675 | 625 ft | 81 kts | 229° |
| 2026-05-09 02:02 | 41.51797 | -81.68393 | 784 ft | 100 kts | 232° |
| 2026-05-09 02:02 | 41.51412 | -81.69212 | 995 ft | 107 kts | 232° |
| 2026-05-09 02:03 | 41.50906 | -81.69940 | 1237 ft | 108 kts | 205° |
| 2026-05-09 02:03 | 41.50174 | -81.69960 | 1392 ft | 113 kts | 158° |
| 2026-05-09 02:03 | 41.49492 | -81.69300 | 1473 ft | 129 kts | 146° |
| 2026-05-09 02:03 | 41.48782 | -81.68523 | 1584 ft | 134 kts | 146° |
| 2026-05-09 02:04 | 41.48052 | -81.67704 | 1673 ft | 139 kts | 146° |
| 2026-05-09 02:04 | 41.47309 | -81.66868 | 1792 ft | 140 kts | 148° |
| 2026-05-09 02:04 | 41.46557 | -81.66032 | 1915 ft | 142 kts | 149° |
| 2026-05-09 02:04 | 41.45790 | -81.65171 | 2028 ft | 145 kts | 149° |
| 2026-05-09 02:05 | 41.45022 | -81.64286 | 2186 ft | 147 kts | 149° |
| 2026-05-09 02:05 | 41.44192 | -81.63504 | 2410 ft | 143 kts | 166° |
| 2026-05-09 02:05 | 41.43266 | -81.63159 | 2583 ft | 137 kts | 181° |
| 2026-05-09 02:05 | 41.42352 | -81.62940 | 2841 ft | 131 kts | 183° |
| 2026-05-09 02:06 | 41.41455 | -81.62760 | 3044 ft | 132 kts | 185° |
| 2026-05-09 02:06 | 41.40557 | -81.62689 | 3313 ft | 125 kts | 198° |
| 2026-05-09 02:06 | 41.39747 | -81.62947 | 3541 ft | 116 kts | 210° |
| 2026-05-09 02:07 | 41.38324 | -81.63680 | 3949 ft | 108 kts | 213° |
| 2026-05-09 02:07 | 41.37623 | -81.64038 | 4151 ft | 108 kts | 212° |
| 2026-05-09 02:07 | 41.36916 | -81.64393 | 4341 ft | 109 kts | 217° |
| 2026-05-09 02:07 | 41.36264 | -81.64895 | 4536 ft | 106 kts | 223° |
| 2026-05-09 02:08 | 41.35653 | -81.65403 | 4705 ft | 104 kts | 222° |
| 2026-05-09 02:08 | 41.35029 | -81.65901 | 4886 ft | 104 kts | 222° |
| 2026-05-09 02:08 | 41.34411 | -81.66394 | 5083 ft | 104 kts | 221° |
| 2026-05-09 02:08 | 41.33771 | -81.66884 | 5257 ft | 106 kts | 220° |
| 2026-05-09 02:09 | 41.33132 | -81.67366 | 5462 ft | 105 kts | 220° |
| 2026-05-09 02:09 | 41.32492 | -81.67842 | 5633 ft | 108 kts | 219° |
| 2026-05-09 02:09 | 41.31838 | -81.68312 | 5832 ft | 107 kts | 219° |
| 2026-05-09 02:09 | 41.31231 | -81.68885 | 6020 ft | 108 kts | 231° |
| 2026-05-09 02:10 | 41.30712 | -81.69620 | 6073 ft | 111 kts | 234° |
| 2026-05-09 02:10 | 41.30197 | -81.70405 | 6096 ft | 113 kts | 235° |
| 2026-05-09 02:10 | 41.29672 | -81.71211 | 6084 ft | 116 kts | 234° |
| 2026-05-09 02:10 | 41.29139 | -81.72012 | 6090 ft | 118 kts | 233° |
| 2026-05-09 02:11 | 41.28581 | -81.72819 | 6095 ft | 119 kts | 232° |
| 2026-05-09 02:11 | 41.28007 | -81.73624 | 6083 ft | 121 kts | 232° |
| 2026-05-09 02:11 | 41.27416 | -81.74427 | 6083 ft | 122 kts | 232° |
| 2026-05-09 02:11 | 41.26820 | -81.75220 | 6098 ft | 121 kts | 231° |
| 2026-05-09 02:12 | 41.26204 | -81.75996 | 6099 ft | 122 kts | 229° |
| 2026-05-09 02:12 | 41.25574 | -81.76756 | 6095 ft | 122 kts | 228° |
| 2026-05-09 02:12 | 41.24932 | -81.77510 | 6095 ft | 123 kts | 228° |
| 2026-05-09 02:12 | 41.24285 | -81.78237 | 6078 ft | 124 kts | 223° |
| 2026-05-09 02:13 | 41.23511 | -81.78782 | 6045 ft | 128 kts | 208° |
| 2026-05-09 02:13 | 41.22610 | -81.79018 | 6001 ft | 135 kts | 199° |
| 2026-05-09 02:13 | 41.21675 | -81.79135 | 6006 ft | 135 kts | 195° |
| 2026-05-09 02:13 | 41.20722 | -81.79192 | 5979 ft | 138 kts | 194° |
| 2026-05-09 02:14 | 41.19770 | -81.79234 | 5968 ft | 137 kts | 194° |
| 2026-05-09 02:14 | 41.18818 | -81.79277 | 5963 ft | 136 kts | 194° |
| 2026-05-09 02:14 | 41.17866 | -81.79333 | 5941 ft | 136 kts | 195° |
| 2026-05-09 02:14 | 41.16943 | -81.79414 | 5989 ft | 133 kts | 197° |
| 2026-05-09 02:15 | 41.16021 | -81.79541 | 5986 ft | 133 kts | 199° |
| 2026-05-09 02:15 | 41.15102 | -81.79715 | 5988 ft | 132 kts | 200° |
| 2026-05-09 02:15 | 41.14200 | -81.79917 | 6005 ft | 130 kts | 202° |
| 2026-05-09 02:15 | 41.13310 | -81.80163 | 6016 ft | 131 kts | 205° |
| 2026-05-09 02:16 | 41.12461 | -81.80455 | 6123 ft | 123 kts | 207° |
| 2026-05-09 02:16 | 41.11648 | -81.80750 | 6198 ft | 121 kts | 206° |
| 2026-05-09 02:16 | 41.10829 | -81.81040 | 6255 ft | 121 kts | 206° |
| 2026-05-09 02:16 | 41.10014 | -81.81322 | 6313 ft | 121 kts | 206° |
| 2026-05-09 02:17 | 41.09193 | -81.81594 | 6369 ft | 122 kts | 205° |
| 2026-05-09 02:17 | 41.08365 | -81.81825 | 6433 ft | 122 kts | 203° |
| 2026-05-09 02:17 | 41.07526 | -81.82019 | 6477 ft | 123 kts | 201° |
| 2026-05-09 02:17 | 41.06677 | -81.82172 | 6551 ft | 122 kts | 199° |
| 2026-05-09 02:18 | 41.05811 | -81.82276 | 6560 ft | 127 kts | 196° |
| 2026-05-09 02:18 | 41.04937 | -81.82337 | 6595 ft | 128 kts | 195° |
| 2026-05-09 02:18 | 41.04044 | -81.82385 | 6597 ft | 131 kts | 194° |
| 2026-05-09 02:18 | 41.03125 | -81.82412 | 6610 ft | 132 kts | 193° |
| 2026-05-09 02:19 | 41.02198 | -81.82428 | 6567 ft | 135 kts | 193° |
| 2026-05-09 02:19 | 41.01244 | -81.82434 | 6540 ft | 136 kts | 192° |
| 2026-05-09 02:19 | 41.00311 | -81.82406 | 6530 ft | 137 kts | 191° |
| 2026-05-09 02:19 | 40.99351 | -81.82350 | 6487 ft | 139 kts | 189° |
| 2026-05-09 02:20 | 40.98394 | -81.82290 | 6491 ft | 136 kts | 190° |
| 2026-05-09 02:20 | 40.97443 | -81.82231 | 6463 ft | 138 kts | 189° |
| 2026-05-09 02:20 | 40.96487 | -81.82162 | 6455 ft | 137 kts | 191° |
| 2026-05-09 02:20 | 40.95547 | -81.82137 | 6454 ft | 134 kts | 193° |
| 2026-05-09 02:21 | 40.94612 | -81.82164 | 6429 ft | 133 kts | 195° |
| 2026-05-09 02:21 | 40.93698 | -81.82234 | 6442 ft | 129 kts | 197° |
| 2026-05-09 02:21 | 40.92809 | -81.82341 | 6442 ft | 128 kts | 199° |
| 2026-05-09 02:21 | 40.91923 | -81.82496 | 6428 ft | 128 kts | 200° |
| 2026-05-09 02:22 | 40.91054 | -81.82671 | 6449 ft | 125 kts | 201° |
| 2026-05-09 02:22 | 40.90190 | -81.82856 | 6412 ft | 127 kts | 201° |
| 2026-05-09 02:22 | 40.89320 | -81.83038 | 6403 ft | 125 kts | 201° |
| 2026-05-09 02:22 | 40.88473 | -81.83228 | 6424 ft | 123 kts | 203° |
| 2026-05-09 02:23 | 40.87643 | -81.83504 | 6425 ft | 122 kts | 208° |
| 2026-05-09 02:23 | 40.86881 | -81.83914 | 6476 ft | 116 kts | 217° |
| 2026-05-09 02:23 | 40.86200 | -81.84461 | 6482 ft | 114 kts | 222° |
| 2026-05-09 02:23 | 40.85558 | -81.85066 | 6506 ft | 112 kts | 224° |
| 2026-05-09 02:24 | 40.84946 | -81.85710 | 6516 ft | 112 kts | 226° |
| 2026-05-09 02:24 | 40.84353 | -81.86383 | 6522 ft | 112 kts | 227° |
| 2026-05-09 02:24 | 40.83783 | -81.87062 | 6546 ft | 112 kts | 228° |
| 2026-05-09 02:24 | 40.83210 | -81.87772 | 6530 ft | 113 kts | 229° |
| 2026-05-09 02:25 | 40.82643 | -81.88485 | 6549 ft | 112 kts | 229° |
| 2026-05-09 02:25 | 40.82079 | -81.89192 | 6567 ft | 112 kts | 229° |
| 2026-05-09 02:25 | 40.81511 | -81.89910 | 6555 ft | 114 kts | 229° |
| 2026-05-09 02:25 | 40.80937 | -81.90621 | 6575 ft | 113 kts | 228° |
| 2026-05-09 02:26 | 40.80349 | -81.91314 | 6577 ft | 114 kts | 226° |
| 2026-05-09 02:26 | 40.79740 | -81.91994 | 6575 ft | 115 kts | 225° |
| 2026-05-09 02:26 | 40.79114 | -81.92660 | 6586 ft | 116 kts | 225° |
| 2026-05-09 02:26 | 40.78483 | -81.93319 | 6585 ft | 116 kts | 225° |
| 2026-05-09 02:27 | 40.77871 | -81.94007 | 6587 ft | 115 kts | 227° |
| 2026-05-09 02:27 | 40.77287 | -81.94731 | 6594 ft | 115 kts | 230° |
| 2026-05-09 02:27 | 40.76743 | -81.95509 | 6587 ft | 115 kts | 233° |
| 2026-05-09 02:27 | 40.76239 | -81.96321 | 6592 ft | 114 kts | 235° |
| 2026-05-09 02:28 | 40.75778 | -81.97180 | 6584 ft | 115 kts | 241° |
| 2026-05-09 02:28 | 40.75424 | -81.98114 | 6587 ft | 114 kts | 247° |
| 2026-05-09 02:28 | 40.75152 | -81.99098 | 6577 ft | 114 kts | 250° |
| 2026-05-09 02:28 | 40.74914 | -82.00097 | 6566 ft | 114 kts | 251° |
| 2026-05-09 02:29 | 40.74706 | -82.01103 | 6560 ft | 114 kts | 253° |
| 2026-05-09 02:29 | 40.74526 | -82.02127 | 6547 ft | 115 kts | 255° |
| 2026-05-09 02:29 | 40.74379 | -82.03168 | 6532 ft | 116 kts | 257° |
| 2026-05-09 02:29 | 40.74264 | -82.04216 | 6529 ft | 115 kts | 258° |
| 2026-05-09 02:30 | 40.74176 | -82.05262 | 6517 ft | 115 kts | 260° |
| 2026-05-09 02:30 | 40.74031 | -82.06299 | 6513 ft | 115 kts | 250° |
| 2026-05-09 02:30 | 40.73717 | -82.07265 | 6516 ft | 114 kts | 242° |
| 2026-05-09 02:30 | 40.73278 | -82.08135 | 6508 ft | 114 kts | 235° |
| 2026-05-09 02:31 | 40.72768 | -82.08941 | 6492 ft | 115 kts | 232° |
| 2026-05-09 02:31 | 40.72210 | -82.09691 | 6479 ft | 116 kts | 228° |
| 2026-05-09 02:31 | 40.71612 | -82.10386 | 6475 ft | 116 kts | 225° |
| 2026-05-09 02:31 | 40.70970 | -82.11047 | 6476 ft | 117 kts | 223° |
| 2026-05-09 02:32 | 40.70295 | -82.11666 | 6470 ft | 118 kts | 220° |
| 2026-05-09 02:32 | 40.69604 | -82.12244 | 6484 ft | 117 kts | 219° |
| 2026-05-09 02:32 | 40.68894 | -82.12790 | 6473 ft | 119 kts | 217° |
| 2026-05-09 02:32 | 40.68209 | -82.13279 | 6473 ft | 118 kts | 216° |
| 2026-05-09 02:33 | 40.67489 | -82.13801 | 6484 ft | 118 kts | 219° |
| 2026-05-09 02:33 | 40.66828 | -82.14408 | 6489 ft | 117 kts | 224° |
| 2026-05-09 02:33 | 40.66223 | -82.15109 | 6507 ft | 115 kts | 229° |
| 2026-05-09 02:33 | 40.65671 | -82.15880 | 6510 ft | 115 kts | 233° |
| 2026-05-09 02:34 | 40.65163 | -82.16697 | 6515 ft | 115 kts | 235° |
| 2026-05-09 02:34 | 40.64690 | -82.17538 | 6513 ft | 114 kts | 237° |
| 2026-05-09 02:34 | 40.64230 | -82.18387 | 6505 ft | 114 kts | 237° |
| 2026-05-09 02:34 | 40.63772 | -82.19240 | 6493 ft | 114 kts | 237° |
| 2026-05-09 02:35 | 40.63311 | -82.20091 | 6487 ft | 114 kts | 236° |
| 2026-05-09 02:35 | 40.62843 | -82.20935 | 6478 ft | 114 kts | 236° |
| 2026-05-09 02:35 | 40.62368 | -82.21777 | 6470 ft | 115 kts | 236° |
| 2026-05-09 02:35 | 40.61887 | -82.22611 | 6473 ft | 114 kts | 235° |
| 2026-05-09 02:36 | 40.61378 | -82.23413 | 6460 ft | 115 kts | 232° |
| 2026-05-09 02:36 | 40.60830 | -82.24177 | 6450 ft | 115 kts | 229° |
| 2026-05-09 02:36 | 40.60244 | -82.24893 | 6451 ft | 115 kts | 226° |
| 2026-05-09 02:36 | 40.59629 | -82.25568 | 6437 ft | 116 kts | 226° |
| 2026-05-09 02:37 | 40.59070 | -82.26325 | 6437 ft | 115 kts | 236° |
| 2026-05-09 02:37 | 40.58566 | -82.27141 | 6430 ft | 114 kts | 230° |
| 2026-05-09 02:37 | 40.57955 | -82.27811 | 6424 ft | 116 kts | 220° |
| 2026-05-09 02:37 | 40.57233 | -82.28327 | 6389 ft | 119 kts | 213° |
| 2026-05-09 02:38 | 40.56465 | -82.28719 | 6404 ft | 119 kts | 208° |
| 2026-05-09 02:38 | 40.55658 | -82.29000 | 6382 ft | 122 kts | 200° |
| 2026-05-09 02:38 | 40.54807 | -82.29098 | 6400 ft | 124 kts | 192° |
| 2026-05-09 02:38 | 40.53928 | -82.29021 | 6389 ft | 129 kts | 185° |
| 2026-05-09 02:39 | 40.53032 | -82.28801 | 6395 ft | 131 kts | 180° |
| 2026-05-09 02:39 | 40.52144 | -82.28495 | 6412 ft | 133 kts | 178° |
| 2026-05-09 02:39 | 40.51261 | -82.28134 | 6406 ft | 136 kts | 175° |
| 2026-05-09 02:39 | 40.50368 | -82.27713 | 6435 ft | 136 kts | 173° |
| 2026-05-09 02:40 | 40.49480 | -82.27264 | 6438 ft | 137 kts | 174° |
| 2026-05-09 02:40 | 40.48584 | -82.26923 | 6451 ft | 134 kts | 178° |
| 2026-05-09 02:40 | 40.47683 | -82.26617 | 6474 ft | 133 kts | 180° |
| 2026-05-09 02:40 | 40.46783 | -82.26343 | 6483 ft | 132 kts | 181° |
| 2026-05-09 02:41 | 40.45883 | -82.26152 | 6518 ft | 129 kts | 186° |
| 2026-05-09 02:41 | 40.45008 | -82.26078 | 6549 ft | 127 kts | 191° |
| 2026-05-09 02:41 | 40.44122 | -82.26117 | 6574 ft | 125 kts | 196° |
| 2026-05-09 02:41 | 40.43265 | -82.26250 | 6598 ft | 123 kts | 200° |
| 2026-05-09 02:42 | 40.42436 | -82.26466 | 6597 ft | 122 kts | 204° |
| 2026-05-09 02:42 | 40.41621 | -82.26763 | 6618 ft | 120 kts | 207° |
| 2026-05-09 02:42 | 40.40842 | -82.27125 | 6632 ft | 118 kts | 210° |
| 2026-05-09 02:42 | 40.40338 | -82.27397 | 6633 ft | 118 kts | 212° |
| 2026-05-09 02:43 | 40.39590 | -82.27840 | 6640 ft | 117 kts | 213° |
| 2026-05-09 02:43 | 40.38865 | -82.28311 | 6629 ft | 118 kts | 214° |
| 2026-05-09 02:43 | 40.38133 | -82.28824 | 6623 ft | 118 kts | 216° |
| 2026-05-09 02:43 | 40.37423 | -82.29355 | 6639 ft | 117 kts | 217° |
| 2026-05-09 02:44 | 40.36714 | -82.29903 | 6616 ft | 119 kts | 217° |
| 2026-05-09 02:44 | 40.36000 | -82.30456 | 6623 ft | 119 kts | 217° |
| 2026-05-09 02:44 | 40.35287 | -82.30988 | 6596 ft | 120 kts | 216° |
| 2026-05-09 02:44 | 40.34548 | -82.31501 | 6587 ft | 120 kts | 214° |
| 2026-05-09 02:45 | 40.33793 | -82.31976 | 6576 ft | 120 kts | 212° |
| 2026-05-09 02:45 | 40.33019 | -82.32413 | 6554 ft | 122 kts | 210° |
| 2026-05-09 02:45 | 40.32224 | -82.32809 | 6549 ft | 122 kts | 207° |
| 2026-05-09 02:45 | 40.31414 | -82.33161 | 6536 ft | 123 kts | 206° |
| 2026-05-09 02:46 | 40.30588 | -82.33471 | 6524 ft | 124 kts | 204° |
| 2026-05-09 02:46 | 40.29752 | -82.33748 | 6506 ft | 124 kts | 203° |
| 2026-05-09 02:46 | 40.28917 | -82.34041 | 6490 ft | 124 kts | 204° |
| 2026-05-09 02:46 | 40.28088 | -82.34344 | 6483 ft | 124 kts | 204° |
| 2026-05-09 02:47 | 40.27258 | -82.34648 | 6469 ft | 124 kts | 205° |
| 2026-05-09 02:47 | 40.26474 | -82.35083 | 6465 ft | 121 kts | 216° |
| 2026-05-09 02:47 | 40.25785 | -82.35697 | 6474 ft | 119 kts | 224° |
| 2026-05-09 02:47 | 40.25196 | -82.36439 | 6473 ft | 117 kts | 233° |
| 2026-05-09 02:48 | 40.24760 | -82.37331 | 6462 ft | 116 kts | 244° |
| 2026-05-09 02:48 | 40.24436 | -82.38298 | 6460 ft | 116 kts | 246° |
| 2026-05-09 02:48 | 40.24144 | -82.39263 | 6448 ft | 116 kts | 247° |
| 2026-05-09 02:48 | 40.23857 | -82.40264 | 6445 ft | 116 kts | 247° |
| 2026-05-09 02:49 | 40.23583 | -82.41239 | 6445 ft | 116 kts | 247° |
| 2026-05-09 02:49 | 40.23306 | -82.42230 | 6434 ft | 116 kts | 247° |
| 2026-05-09 02:49 | 40.23029 | -82.43219 | 6447 ft | 115 kts | 247° |
| 2026-05-09 02:49 | 40.22752 | -82.44198 | 6442 ft | 115 kts | 247° |
| 2026-05-09 02:50 | 40.22476 | -82.45187 | 6439 ft | 116 kts | 248° |
| 2026-05-09 02:50 | 40.22204 | -82.46173 | 6450 ft | 115 kts | 248° |
| 2026-05-09 02:50 | 40.21937 | -82.47132 | 6439 ft | 116 kts | 248° |
| 2026-05-09 02:50 | 40.21662 | -82.48120 | 6445 ft | 115 kts | 248° |
| 2026-05-09 02:51 | 40.21389 | -82.49106 | 6449 ft | 115 kts | 248° |
| 2026-05-09 02:51 | 40.21117 | -82.50091 | 6445 ft | 115 kts | 248° |
| 2026-05-09 02:51 | 40.20844 | -82.51075 | 6434 ft | 115 kts | 247° |
| 2026-05-09 02:51 | 40.20565 | -82.52063 | 6425 ft | 116 kts | 247° |
| 2026-05-09 02:52 | 40.20280 | -82.53053 | 6422 ft | 116 kts | 247° |
| 2026-05-09 02:52 | 40.19990 | -82.54046 | 6416 ft | 117 kts | 246° |
| 2026-05-09 02:52 | 40.19693 | -82.55023 | 6414 ft | 116 kts | 246° |
| 2026-05-09 02:52 | 40.19382 | -82.56004 | 6408 ft | 116 kts | 245° |
| 2026-05-09 02:53 | 40.19065 | -82.56963 | 6408 ft | 114 kts | 244° |
| 2026-05-09 02:53 | 40.18723 | -82.57898 | 6407 ft | 114 kts | 242° |
| 2026-05-09 02:53 | 40.18354 | -82.58814 | 6399 ft | 114 kts | 240° |
| 2026-05-09 02:53 | 40.17962 | -82.59703 | 6396 ft | 114 kts | 238° |
| 2026-05-09 02:54 | 40.17535 | -82.60581 | 6390 ft | 115 kts | 236° |
| 2026-05-09 02:54 | 40.17071 | -82.61442 | 6392 ft | 114 kts | 234° |
| 2026-05-09 02:54 | 40.16606 | -82.62263 | 6396 ft | 113 kts | 234° |
| 2026-05-09 02:54 | 40.16163 | -82.63114 | 6386 ft | 113 kts | 238° |
| 2026-05-09 02:55 | 40.15786 | -82.64022 | 6370 ft | 114 kts | 243° |
| 2026-05-09 02:55 | 40.15471 | -82.64964 | 6358 ft | 113 kts | 246° |
| 2026-05-09 02:55 | 40.15202 | -82.65941 | 6330 ft | 114 kts | 248° |
| 2026-05-09 02:55 | 40.14971 | -82.66924 | 6323 ft | 112 kts | 250° |
| 2026-05-09 02:56 | 40.14771 | -82.67896 | 6297 ft | 111 kts | 251° |
| 2026-05-09 02:56 | 40.14577 | -82.68880 | 6267 ft | 112 kts | 250° |
| 2026-05-09 02:56 | 40.14345 | -82.69837 | 6268 ft | 110 kts | 246° |
| 2026-05-09 02:56 | 40.14031 | -82.70743 | 6261 ft | 109 kts | 240° |
| 2026-05-09 02:57 | 40.13620 | -82.71577 | 6238 ft | 109 kts | 233° |
| 2026-05-09 02:57 | 40.13138 | -82.72316 | 6246 ft | 106 kts | 227° |
| 2026-05-09 02:57 | 40.12600 | -82.72971 | 6234 ft | 105 kts | 224° |
| 2026-05-09 02:57 | 40.12033 | -82.73573 | 6225 ft | 104 kts | 222° |
| 2026-05-09 02:58 | 40.11470 | -82.74161 | 6219 ft | 103 kts | 223° |
| 2026-05-09 02:58 | 40.10935 | -82.74770 | 6240 ft | 100 kts | 227° |
| 2026-05-09 02:58 | 40.10461 | -82.75432 | 6259 ft | 99 kts | 232° |
| 2026-05-09 02:58 | 40.10047 | -82.76156 | 6267 ft | 101 kts | 236° |
| 2026-05-09 02:59 | 40.09680 | -82.76933 | 6335 ft | 100 kts | 239° |
| 2026-05-09 02:59 | 40.09353 | -82.77736 | 6387 ft | 101 kts | 242° |
| 2026-05-09 02:59 | 40.09050 | -82.78559 | 6441 ft | 100 kts | 242° |
| 2026-05-09 02:59 | 40.08723 | -82.79373 | 6486 ft | 102 kts | 239° |
| 2026-05-09 03:00 | 40.08365 | -82.80172 | 6530 ft | 103 kts | 237° |
| 2026-05-09 03:00 | 40.07959 | -82.80965 | 6532 ft | 105 kts | 235° |
| 2026-05-09 03:00 | 40.07537 | -82.81721 | 6577 ft | 105 kts | 234° |
| 2026-05-09 03:00 | 40.07098 | -82.82502 | 6555 ft | 108 kts | 234° |
| 2026-05-09 03:01 | 40.06640 | -82.83270 | 6580 ft | 108 kts | 232° |
| 2026-05-09 03:01 | 40.06145 | -82.84017 | 6573 ft | 109 kts | 229° |
| 2026-05-09 03:01 | 40.05629 | -82.84739 | 6578 ft | 110 kts | 229° |
| 2026-05-09 03:01 | 40.05105 | -82.85468 | 6574 ft | 110 kts | 229° |
| 2026-05-09 03:02 | 40.04577 | -82.86194 | 6597 ft | 110 kts | 229° |
| 2026-05-09 03:02 | 40.04048 | -82.86920 | 6603 ft | 111 kts | 229° |
| 2026-05-09 03:02 | 40.03510 | -82.87657 | 6615 ft | 111 kts | 229° |
| 2026-05-09 03:02 | 40.02976 | -82.88392 | 6614 ft | 111 kts | 228° |
| 2026-05-09 03:03 | 40.02452 | -82.89111 | 6626 ft | 110 kts | 228° |
| 2026-05-09 03:03 | 40.01921 | -82.89833 | 6626 ft | 110 kts | 228° |
| 2026-05-09 03:03 | 40.01388 | -82.90546 | 6631 ft | 110 kts | 227° |
| 2026-05-09 03:03 | 40.00839 | -82.91263 | 6620 ft | 112 kts | 227° |
| 2026-05-09 03:04 | 40.00295 | -82.91978 | 6628 ft | 112 kts | 227° |
| 2026-05-09 03:04 | 39.99738 | -82.92698 | 6619 ft | 113 kts | 227° |
| 2026-05-09 03:04 | 39.99174 | -82.93418 | 6620 ft | 113 kts | 227° |
| 2026-05-09 03:04 | 39.98620 | -82.94141 | 6605 ft | 114 kts | 227° |
| 2026-05-09 03:05 | 39.98063 | -82.94884 | 6604 ft | 114 kts | 227° |
| 2026-05-09 03:05 | 39.97519 | -82.95632 | 6590 ft | 114 kts | 230° |
| 2026-05-09 03:05 | 39.97024 | -82.96419 | 6575 ft | 113 kts | 233° |
| 2026-05-09 03:05 | 39.96562 | -82.97252 | 6571 ft | 113 kts | 236° |
| 2026-05-09 03:06 | 39.96194 | -82.98172 | 6543 ft | 117 kts | 249° |
| 2026-05-09 03:06 | 39.96040 | -82.99217 | 6551 ft | 118 kts | 261° |
| 2026-05-09 03:06 | 39.96071 | -83.00295 | 6542 ft | 120 kts | 269° |
| 2026-05-09 03:06 | 39.96200 | -83.01388 | 6534 ft | 123 kts | 272° |
| 2026-05-09 03:07 | 39.96375 | -83.02475 | 6533 ft | 123 kts | 274° |
| 2026-05-09 03:07 | 39.96579 | -83.03561 | 6533 ft | 124 kts | 275° |
| 2026-05-09 03:07 | 39.96786 | -83.04655 | 6541 ft | 124 kts | 272° |
| 2026-05-09 03:07 | 39.96944 | -83.05749 | 6545 ft | 122 kts | 271° |
| 2026-05-09 03:08 | 39.97086 | -83.06821 | 6544 ft | 121 kts | 271° |
| 2026-05-09 03:08 | 39.97245 | -83.07905 | 6538 ft | 121 kts | 272° |
| 2026-05-09 03:08 | 39.97429 | -83.08982 | 6539 ft | 122 kts | 273° |
| 2026-05-09 03:08 | 39.97627 | -83.10058 | 6540 ft | 122 kts | 274° |
| 2026-05-09 03:09 | 39.97832 | -83.11122 | 6541 ft | 122 kts | 274° |
| 2026-05-09 03:09 | 39.98043 | -83.12196 | 6545 ft | 122 kts | 274° |
| 2026-05-09 03:09 | 39.98251 | -83.13274 | 6540 ft | 122 kts | 274° |
| 2026-05-09 03:09 | 39.98453 | -83.14354 | 6535 ft | 122 kts | 274° |
| 2026-05-09 03:10 | 39.98642 | -83.15416 | 6529 ft | 121 kts | 274° |
| 2026-05-09 03:10 | 39.98822 | -83.16492 | 6520 ft | 121 kts | 273° |
| 2026-05-09 03:10 | 39.98990 | -83.17569 | 6517 ft | 121 kts | 272° |
| 2026-05-09 03:10 | 39.99147 | -83.18655 | 6510 ft | 122 kts | 271° |
| 2026-05-09 03:11 | 39.99293 | -83.19741 | 6506 ft | 121 kts | 270° |
| 2026-05-09 03:11 | 39.99424 | -83.20828 | 6500 ft | 121 kts | 270° |
| 2026-05-09 03:11 | 39.99536 | -83.21921 | 6489 ft | 121 kts | 269° |
| 2026-05-09 03:11 | 39.99631 | -83.23009 | 6484 ft | 120 kts | 269° |
| 2026-05-09 03:12 | 39.99767 | -83.24075 | 6462 ft | 121 kts | 273° |
| 2026-05-09 03:12 | 39.99984 | -83.25146 | 6455 ft | 123 kts | 277° |
| 2026-05-09 03:12 | 40.00248 | -83.26216 | 6452 ft | 124 kts | 276° |
| 2026-05-09 03:12 | 40.00442 | -83.27303 | 6453 ft | 122 kts | 271° |
| 2026-05-09 03:13 | 40.00585 | -83.29471 | 6454 ft | 119 kts | 265° |
| 2026-05-09 03:13 | 40.00641 | -83.30550 | 6443 ft | 119 kts | 267° |
| 2026-05-09 03:13 | 40.00730 | -83.31606 | 6439 ft | 118 kts | 269° |
| 2026-05-09 03:14 | 40.00880 | -83.32660 | 6442 ft | 118 kts | 273° |
| 2026-05-09 03:14 | 40.01086 | -83.33701 | 6451 ft | 118 kts | 275° |
| 2026-05-09 03:14 | 40.01309 | -83.34718 | 6467 ft | 118 kts | 275° |
| 2026-05-09 03:14 | 40.01527 | -83.35753 | 6442 ft | 118 kts | 275° |
| 2026-05-09 03:15 | 40.01733 | -83.36792 | 6458 ft | 116 kts | 271° |
| 2026-05-09 03:15 | 40.01811 | -83.37818 | 6474 ft | 113 kts | 264° |
| 2026-05-09 03:15 | 40.01832 | -83.38838 | 6491 ft | 111 kts | 263° |
| 2026-05-09 03:15 | 40.01829 | -83.39848 | 6493 ft | 111 kts | 262° |
| 2026-05-09 03:16 | 40.01802 | -83.40857 | 6504 ft | 111 kts | 261° |
| 2026-05-09 03:16 | 40.01759 | -83.41861 | 6516 ft | 111 kts | 260° |
| 2026-05-09 03:16 | 40.01698 | -83.42871 | 6521 ft | 112 kts | 259° |
| 2026-05-09 03:16 | 40.01623 | -83.43863 | 6530 ft | 111 kts | 258° |
| 2026-05-09 03:17 | 40.01571 | -83.44870 | 6534 ft | 112 kts | 262° |
| 2026-05-09 03:17 | 40.01574 | -83.45893 | 6532 ft | 113 kts | 265° |
| 2026-05-09 03:17 | 40.01629 | -83.46917 | 6531 ft | 113 kts | 267° |
| 2026-05-09 03:17 | 40.01688 | -83.47949 | 6548 ft | 113 kts | 265° |
| 2026-05-09 03:18 | 40.01722 | -83.48973 | 6554 ft | 112 kts | 262° |
| 2026-05-09 03:18 | 40.01686 | -83.49972 | 6558 ft | 111 kts | 261° |
| 2026-05-09 03:18 | 40.01780 | -83.50993 | 6526 ft | 115 kts | 271° |
| 2026-05-09 03:18 | 40.01836 | -83.52010 | 6595 ft | 110 kts | 258° |
| 2026-05-09 03:19 | 40.01646 | -83.52970 | 6598 ft | 109 kts | 245° |
| 2026-05-09 03:19 | 40.01277 | -83.53828 | 6607 ft | 108 kts | 235° |
| 2026-05-09 03:19 | 40.00808 | -83.54599 | 6530 ft | 111 kts | 232° |
| 2026-05-09 03:19 | 40.00285 | -83.55336 | 6509 ft | 110 kts | 228° |
| 2026-05-09 03:20 | 39.99715 | -83.56012 | 6434 ft | 112 kts | 224° |
| 2026-05-09 03:20 | 39.99135 | -83.56679 | 6390 ft | 108 kts | 231° |
| 2026-05-09 03:20 | 39.98706 | -83.57505 | 6227 ft | 112 kts | 244° |
| 2026-05-09 03:20 | 39.98443 | -83.58437 | 6196 ft | 106 kts | 251° |
| 2026-05-09 03:21 | 39.98244 | -83.59382 | 6057 ft | 111 kts | 251° |
| 2026-05-09 03:21 | 39.98049 | -83.60335 | 6009 ft | 106 kts | 252° |
| 2026-05-09 03:21 | 39.97874 | -83.61269 | 5862 ft | 108 kts | 252° |
| 2026-05-09 03:21 | 39.97690 | -83.62228 | 5722 ft | 108 kts | 252° |
| 2026-05-09 03:22 | 39.97500 | -83.63149 | 5613 ft | 106 kts | 250° |
| 2026-05-09 03:22 | 39.97286 | -83.64099 | 5458 ft | 108 kts | 251° |
| 2026-05-09 03:22 | 39.97200 | -83.65047 | 5345 ft | 108 kts | 271° |
| 2026-05-09 03:22 | 39.97355 | -83.66062 | 5201 ft | 114 kts | 272° |
| 2026-05-09 03:23 | 39.97482 | -83.67028 | 5138 ft | 108 kts | 269° |
| 2026-05-09 03:23 | 39.97554 | -83.68039 | 4914 ft | 114 kts | 265° |
| 2026-05-09 03:23 | 39.97552 | -83.69035 | 4837 ft | 106 kts | 260° |
| 2026-05-09 03:23 | 39.97466 | -83.69983 | 4671 ft | 108 kts | 255° |
| 2026-05-09 03:24 | 39.97290 | -83.70932 | 4543 ft | 105 kts | 249° |
| 2026-05-09 03:24 | 39.97034 | -83.71831 | 4383 ft | 107 kts | 245° |
| 2026-05-09 03:24 | 39.96714 | -83.72714 | 4235 ft | 107 kts | 240° |
| 2026-05-09 03:24 | 39.96336 | -83.73543 | 4107 ft | 107 kts | 238° |
| 2026-05-09 03:25 | 39.95958 | -83.74378 | 3958 ft | 109 kts | 245° |
| 2026-05-09 03:25 | 39.95818 | -83.75337 | 3903 ft | 106 kts | 267° |
| 2026-05-09 03:25 | 39.95870 | -83.76295 | 3866 ft | 108 kts | 268° |
| 2026-05-09 03:25 | 39.95946 | -83.77290 | 3812 ft | 110 kts | 271° |
| 2026-05-09 03:26 | 39.96079 | -83.78263 | 3810 ft | 110 kts | 274° |
| 2026-05-09 03:26 | 39.96256 | -83.79244 | 3789 ft | 112 kts | 275° |
| 2026-05-09 03:26 | 39.96431 | -83.80219 | 3807 ft | 109 kts | 275° |
| 2026-05-09 03:26 | 39.96583 | -83.81200 | 3725 ft | 113 kts | 272° |
| 2026-05-09 03:27 | 39.96715 | -83.82189 | 3733 ft | 108 kts | 274° |
| 2026-05-09 03:27 | 39.96891 | -83.83159 | 3634 ft | 113 kts | 270° |
| 2026-05-09 03:27 | 39.96726 | -83.84108 | 3623 ft | 110 kts | 229° |
| 2026-05-09 03:27 | 39.96121 | -83.84676 | 3668 ft | 104 kts | 222° |
| 2026-05-09 03:28 | 39.95552 | -83.85246 | 3566 ft | 105 kts | 222° |
| 2026-05-09 03:28 | 39.94993 | -83.85894 | 3461 ft | 106 kts | 227° |
| 2026-05-09 03:28 | 39.94520 | -83.86607 | 3408 ft | 104 kts | 233° |
| 2026-05-09 03:28 | 39.94062 | -83.87355 | 3306 ft | 106 kts | 231° |
| 2026-05-09 03:29 | 39.93603 | -83.88060 | 3288 ft | 101 kts | 230° |
| 2026-05-09 03:29 | 39.93126 | -83.88761 | 3164 ft | 105 kts | 230° |
| 2026-05-09 03:29 | 39.92677 | -83.89469 | 3118 ft | 100 kts | 233° |
| 2026-05-09 03:29 | 39.92256 | -83.90234 | 2995 ft | 104 kts | 236° |
| 2026-05-09 03:30 | 39.91883 | -83.91002 | 2982 ft | 98 kts | 237° |
| 2026-05-09 03:30 | 39.91488 | -83.91753 | 2896 ft | 101 kts | 234° |
| 2026-05-09 03:30 | 39.91071 | -83.92466 | 2870 ft | 98 kts | 232° |
| 2026-05-09 03:30 | 39.90639 | -83.93159 | 2787 ft | 101 kts | 231° |
| 2026-05-09 03:31 | 39.90191 | -83.93862 | 2699 ft | 101 kts | 231° |
| 2026-05-09 03:31 | 39.89726 | -83.94553 | 2598 ft | 100 kts | 227° |
| 2026-05-09 03:31 | 39.89383 | -83.94975 | 2485 ft | 103 kts | 224° |
| 2026-05-09 03:31 | 39.88862 | -83.95556 | 2440 ft | 97 kts | 222° |
| 2026-05-09 03:32 | 39.88201 | -83.96394 | 2237 ft | 97 kts | 228° |
| 2026-05-09 03:32 | 39.87906 | -83.96827 | 2150 ft | 97 kts | 230° |
| 2026-05-09 03:32 | 39.87454 | -83.97508 | 1991 ft | 99 kts | 230° |
| 2026-05-09 03:32 | 39.87009 | -83.98200 | 1862 ft | 101 kts | 232° |
| 2026-05-09 03:33 | 39.86587 | -83.98935 | 1739 ft | 97 kts | 233° |
| 2026-05-09 03:33 | 39.86192 | -83.99615 | 1582 ft | 91 kts | 231° |
| 2026-05-09 03:33 | 39.85780 | -84.00202 | 1456 ft | 86 kts | 227° |
| 2026-05-09 03:33 | 39.85382 | -84.00775 | 1320 ft | 83 kts | 227° |
| 2026-05-09 03:34 | 39.85005 | -84.01324 | 1213 ft | 80 kts | 228° |
| 2026-05-09 03:34 | 39.84638 | -84.01847 | 1105 ft | 77 kts | 226° |
| 2026-05-09 03:34 | 39.84292 | -84.02344 | 998 ft | 74 kts | 229° |
| 2026-05-09 03:34 | 39.83960 | -84.02835 | 900 ft | 70 kts | 228° |
| 2026-05-09 03:35 | 39.83668 | -84.03284 | 830 ft | 57 kts | 229° |
| 2026-05-09 03:35 | 39.83456 | -84.03595 | 822 ft | 35 kts | 229° |
| 2026-05-09 03:35 | 39.83331 | -84.03780 | 824 ft | 21 kts | 228° |
| 2026-05-09 03:35 | 39.83232 | -84.03924 | 821 ft | 24 kts | 230° |
| 2026-05-09 03:36 | 39.83112 | -84.04105 | 818 ft | 28 kts | 229° |
| 2026-05-09 03:36 | 39.82988 | -84.04288 | 816 ft | 25 kts | 228° |
| 2026-05-09 03:36 | 39.82883 | -84.04442 | 814 ft | 21 kts | 229° |
| 2026-05-09 03:36 | 39.82808 | -84.04570 | 816 ft | 16 kts | 255° |
| 2026-05-09 03:37 | 39.82855 | -84.04677 | 817 ft | 13 kts | 319° |
| 2026-05-09 03:37 | 39.82921 | -84.04750 | 819 ft | 12 kts | 319° |
| 2026-05-09 03:37 | 39.82989 | -84.04809 | 819 ft | 12 kts | 356° |
| 2026-05-09 03:37 | 39.83057 | -84.04747 | 817 ft | 14 kts | 48° |
| 2026-05-09 03:38 | 39.83133 | -84.04641 | 816 ft | 17 kts | 47° |
| 2026-05-09 03:38 | 39.83211 | -84.04520 | 818 ft | 18 kts | 50° |
| 2026-05-09 03:38 | 39.83295 | -84.04394 | 819 ft | 19 kts | 48° |
| 2026-05-09 03:38 | 39.83399 | -84.04386 | 822 ft | 16 kts | 324° |
| 2026-05-09 03:39 | 39.83466 | -84.04447 | 823 ft | 9 kts | 323° |
| 2026-05-09 03:39 | 39.83508 | -84.04489 | 824 ft | 7 kts | 322° |
| 2026-05-09 03:39 | 39.83548 | -84.04488 | 824 ft | 6 kts | 43° |
| 2026-05-09 03:39 | 39.83549 | -84.04448 | 824 ft | 3 kts | 134° |
| 2026-05-09 03:40 | 39.83547 | -84.04445 | 824 ft | 0 kts | 134° |